Belmont, Kansas
Current Conditions -  °F | °C
As of 4:15 AM on Friday 19 Dec 2014 (Local Time) from KPTT Reporting Station
Haze Haze  
Wind Chill: 32°   Ceiling: 1700
Heat Index: 32°   Visibility: 3mi
Dew Point: 32°   Wind: 3mph
Humidity: 100%   Direction: 170°S
Pressure: 30.18"   Gusts: NA
Location:  37.5907°N, 98.1192°W
Report Text: KPTT 191015Z AUTO 17003KT 3SM BR SCT001 OVC017 00/00 A3018 RMK AO2
Loading
Personal Weather Stations






























Interactive Weather Map New forecast layout! Learn more

10-Day Weather Forecast

Advertisements
Track Severe Weather on mobile